Time;durP1;ratioP1;P1;durP2;ratioP2;P2;SDS_P1;SDS_P2;PMS_P1;PMS_P2;Temp;Humidity;BMP_temperature;BMP_pressure;BME280_temperature;BME280_humidity;BME280_pressure;Samples;Min_cycle;Max_cycle;Signal;HPM_P1;HPM_P2
2022/11/12 14:18:31;;;;;;;;;14.00;14.00;;;;;;;;113509;1213;23473;-68
2022/11/12 14:21:05;;;;;;;;;15.00;12.50;;;;;;;;114274;1207;25292;-67
2022/11/12 14:23:36;;;;;;;;;14.75;13.00;;;;;;;;114372;1211;26095;-66
2022/11/12 14:26:04;;;;;;;;;13.00;13.00;;;;;;;;114354;1210;25084;-67
2022/11/12 14:28:35;;;;;;;;;16.00;15.00;;;;;;;;114353;1214;25001;-67
2022/11/12 14:31:11;;;;;;;;;14.00;13.67;;;;;;;;114330;1209;26165;-68
2022/11/12 14:33:40;;;;;;;;;12.00;11.50;;;;;;;;114563;1210;25526;-64
2022/11/12 14:36:14;;;;;;;;;;;;;;;;;;114581;1209;25444;-66
2022/11/12 14:38:54;;;;;;;;;15.00;13.00;;;;;;;;114621;1211;25506;-70
2022/11/12 14:41:25;;;;;;;;;18.00;14.00;;;;;;;;114698;1205;25137;-68
2022/11/12 14:43:55;;;;;;;;;17.00;14.00;;;;;;;;114629;1203;25657;-67
2022/11/12 14:46:43;;;;;;;;;16.00;13.50;;;;;;;;114722;1204;24967;-71
2022/11/12 14:49:22;;;;;;;;;11.00;11.00;;;;;;;;114598;1202;25162;-67
2022/11/12 14:51:59;;;;;;;;;11.00;11.00;;;;;;;;114689;1203;25253;-68
2022/11/12 14:54:35;;;;;;;;;17.00;14.00;;;;;;;;114670;1202;25105;-67
2022/11/12 14:57:04;;;;;;;;;16.00;14.50;;;;;;;;114692;1206;24855;-67
2022/11/12 14:59:32;;;;;;;;;13.50;13.50;;;;;;;;114670;1205;24881;-67
2022/11/12 15:02:16;;;;;;;;;14.00;14.00;;;;;;;;114651;1203;25561;-66
2022/11/12 15:05:16;;;;;;;;;14.50;11.50;;;;;;;;114688;1203;24877;-70
2022/11/12 15:07:52;;;;;;;;;14.33;12.00;;;;;;;;114650;1199;25030;-67
2022/11/12 15:10:36;;;;;;;;;12.25;10.00;;;;;;;;114601;1202;25135;-67
2022/11/12 15:13:20;;;;;;;;;13.00;11.00;;;;;;;;114580;1204;24967;-65
2022/11/12 15:16:02;;;;;;;;;16.00;11.00;;;;;;;;114754;1206;24966;-68
2022/11/12 15:18:33;;;;;;;;;12.50;12.00;;;;;;;;114669;1207;25003;-65
2022/11/12 15:21:10;;;;;;;;;11.00;11.00;;;;;;;;114582;1206;24980;-65
2022/11/12 15:23:50;;;;;;;;;13.00;8.00;;;;;;;;114625;1206;25835;-66
2022/11/12 15:26:43;;;;;;;;;14.00;11.00;;;;;;;;114699;1199;25081;-67
2022/11/12 15:29:31;;;;;;;;;13.50;10.50;;;;;;;;114689;1206;25271;-64
2022/11/12 15:32:03;;;;;;;;;15.00;12.00;;;;;;;;114658;1200;25293;-63
2022/11/12 15:34:39;;;;;;;;;14.67;11.67;;;;;;;;114582;1202;24824;-63
2022/11/12 15:37:10;;;;;;;;;12.00;11.00;;;;;;;;114674;1211;25068;-65
2022/11/12 15:39:42;;;;;;;;;15.00;13.75;;;;;;;;114663;1211;24920;-64
2022/11/12 15:42:24;;;;;;;;;13.67;13.67;;;;;;;;114687;1208;24692;-65
2022/11/12 15:45:08;;;;;;;;;15.00;15.00;;;;;;;;114692;1206;25458;-63
2022/11/12 15:47:36;;;;;;;;;14.00;12.00;;;;;;;;114816;1208;24875;-62
2022/11/12 15:50:15;;;;;;;;;17.50;13.00;;;;;;;;114704;1205;25921;-63
2022/11/12 15:52:44;;;;;;;;;15.00;13.00;;;;;;;;114876;1199;25313;-63
2022/11/12 15:55:13;;;;;;;;;17.00;12.00;;;;;;;;114942;1197;24752;-62
2022/11/12 15:57:50;;;;;;;;;14.00;14.00;;;;;;;;114754;1199;25579;-68
2022/11/12 16:00:23;;;;;;;;;17.00;12.00;;;;;;;;114759;1200;25154;-68
2022/11/12 16:02:55;;;;;;;;;13.00;11.00;;;;;;;;114723;1200;24837;-70
2022/11/12 16:05:24;;;;;;;;;15.50;13.00;;;;;;;;114647;1206;25446;-69
2022/11/12 16:07:52;;;;;;;;;11.50;11.50;;;;;;;;114755;1203;25438;-67
2022/11/12 16:10:21;;;;;;;;;13.00;10.50;;;;;;;;114798;1206;25681;-65
2022/11/12 16:12:51;;;;;;;;;17.00;17.00;;;;;;;;114710;1204;24919;-69
2022/11/12 16:15:24;;;;;;;;;16.50;14.00;;;;;;;;114741;1205;25075;-64
2022/11/12 16:17:58;;;;;;;;;19.00;16.00;;;;;;;;114880;1200;25694;-64
2022/11/12 16:20:32;;;;;;;;;16.00;14.00;;;;;;;;114720;1206;25260;-64
2022/11/12 16:23:01;;;;;;;;;19.50;17.50;;;;;;;;114880;1198;24876;-65
2022/11/12 16:25:35;;;;;;;;;20.50;16.00;;;;;;;;114853;1206;25345;-64
2022/11/12 16:28:12;;;;;;;;;22.00;18.00;;;;;;;;114707;1203;25516;-63
2022/11/12 16:30:40;;;;;;;;;21.50;16.50;;;;;;;;114896;1200;24963;-64
2022/11/12 16:33:10;;;;;;;;;16.00;16.00;;;;;;;;114905;1205;25160;-64
2022/11/12 16:35:39;;;;;;;;;18.00;15.00;;;;;;;;114839;1199;24832;-64
2022/11/12 16:38:13;;;;;;;;;16.00;13.00;;;;;;;;114775;1200;25446;-64
2022/11/12 16:40:43;;;;;;;;;19.50;18.00;;;;;;;;114739;1203;24758;-64
2022/11/12 16:43:11;;;;;;;;;16.00;15.00;;;;;;;;114631;1206;25617;-64
2022/11/12 16:45:41;;;;;;;;;20.00;19.50;;;;;;;;114810;1204;25745;-64
2022/11/12 16:48:16;;;;;;;;;24.50;21.50;;;;;;;;114726;1206;25714;-63
2022/11/12 16:50:45;;;;;;;;;22.50;20.00;;;;;;;;114835;1208;24899;-64
2022/11/12 16:53:13;;;;;;;;;19.00;15.00;;;;;;;;114838;1197;24956;-63
2022/11/12 16:55:42;;;;;;;;;26.00;24.00;;;;;;;;114774;1204;25038;-63
2022/11/12 16:58:14;;;;;;;;;21.50;18.00;;;;;;;;114746;1197;25214;-63
2022/11/12 17:00:44;;;;;;;;;21.00;20.00;;;;;;;;114800;1206;24985;-63
2022/11/12 17:03:13;;;;;;;;;22.00;19.00;;;;;;;;114918;1206;25545;-63
2022/11/12 17:05:42;;;;;;;;;25.00;18.67;;;;;;;;114884;1200;25878;-63
2022/11/12 17:08:10;;;;;;;;;23.67;21.67;;;;;;;;114851;1204;25486;-63
2022/11/12 17:10:38;;;;;;;;;21.50;18.00;;;;;;;;114854;1201;25511;-63
2022/11/12 17:13:10;;;;;;;;;23.00;20.00;;;;;;;;114803;1200;25737;-63
2022/11/12 17:15:39;;;;;;;;;24.00;20.00;;;;;;;;114888;1206;25478;-62
2022/11/12 17:18:08;;;;;;;;;22.00;18.50;;;;;;;;114902;1204;25289;-64
2022/11/12 17:20:36;;;;;;;;;26.00;24.00;;;;;;;;114775;1203;25542;-64
2022/11/12 17:23:05;;;;;;;;;24.00;21.00;;;;;;;;114846;1206;26323;-64
2022/11/12 17:25:33;;;;;;;;;24.50;22.00;;;;;;;;114878;1200;24755;-65
2022/11/12 17:28:02;;;;;;;;;27.00;22.00;;;;;;;;114747;1205;24865;-63
2022/11/12 17:30:30;;;;;;;;;;;;;;;;;;114723;1200;25344;-63
2022/11/12 17:32:59;;;;;;;;;32.50;25.00;;;;;;;;114883;1206;24931;-64
2022/11/12 17:35:27;;;;;;;;;21.50;18.00;;;;;;;;114900;1200;25718;-64
2022/11/12 17:37:56;;;;;;;;;25.50;22.00;;;;;;;;114880;1200;24968;-64
2022/11/12 17:40:24;;;;;;;;;23.50;21.50;;;;;;;;114788;1206;25942;-63
2022/11/12 17:42:53;;;;;;;;;24.00;19.00;;;;;;;;114855;1206;25493;-64
2022/11/12 17:45:21;;;;;;;;;29.50;24.00;;;;;;;;114840;1204;25487;-63
2022/11/12 17:47:50;;;;;;;;;25.67;22.67;;;;;;;;114688;1206;25122;-64
2022/11/12 17:50:18;;;;;;;;;27.33;25.33;;;;;;;;114925;1200;24831;-64
2022/11/12 17:52:46;;;;;;;;;21.00;19.00;;;;;;;;114878;1208;25114;-64
2022/11/12 17:55:15;;;;;;;;;35.00;27.00;;;;;;;;114864;1208;25141;-67
2022/11/12 17:57:43;;;;;;;;;28.33;24.33;;;;;;;;114887;1205;25465;-67
2022/11/12 18:00:13;;;;;;;;;25.00;23.00;;;;;;;;114893;1208;25298;-67
2022/11/12 18:02:41;;;;;;;;;30.00;27.00;;;;;;;;114730;1207;25629;-65
2022/11/12 18:05:09;;;;;;;;;25.00;25.00;;;;;;;;114732;1203;25630;-65
2022/11/12 18:07:38;;;;;;;;;22.00;20.00;;;;;;;;114749;1206;24974;-65
2022/11/12 18:10:06;;;;;;;;;28.00;27.00;;;;;;;;114829;1206;25550;-64
2022/11/12 18:12:35;;;;;;;;;22.67;20.33;;;;;;;;114682;1203;25238;-65
2022/11/12 18:15:04;;;;;;;;;32.00;26.00;;;;;;;;114842;1203;25580;-63
2022/11/12 18:17:32;;;;;;;;;26.00;23.00;;;;;;;;114798;1200;25590;-64
2022/11/12 18:20:01;;;;;;;;;27.50;26.50;;;;;;;;114790;1200;24903;-63
2022/11/12 18:22:30;;;;;;;;;23.00;21.00;;;;;;;;114685;1204;24823;-64
2022/11/12 18:24:58;;;;;;;;;29.50;23.00;;;;;;;;114703;1206;25685;-64
2022/11/12 18:27:26;;;;;;;;;24.00;20.00;;;;;;;;114806;1206;25075;-64
2022/11/12 18:29:55;;;;;;;;;27.67;24.67;;;;;;;;114791;1200;25592;-64
2022/11/12 18:32:23;;;;;;;;;27.00;22.00;;;;;;;;114793;1208;25546;-63
2022/11/12 18:34:51;;;;;;;;;26.50;20.00;;;;;;;;114852;1200;25616;-64
2022/11/12 18:37:20;;;;;;;;;26.50;23.00;;;;;;;;114853;1201;25035;-70
2022/11/12 18:39:48;;;;;;;;;26.50;22.50;;;;;;;;114699;1206;25619;-71
2022/11/12 18:42:17;;;;;;;;;18.00;18.00;;;;;;;;114709;1204;25347;-71
2022/11/12 18:44:45;;;;;;;;;23.00;21.00;;;;;;;;114678;1206;25041;-68
2022/11/12 18:47:13;;;;;;;;;19.00;17.00;;;;;;;;114697;1208;25178;-66
2022/11/12 18:49:42;;;;;;;;;21.50;16.00;;;;;;;;114801;1200;24756;-66
2022/11/12 18:52:10;;;;;;;;;23.00;19.00;;;;;;;;114821;1200;24730;-65
2022/11/12 18:54:39;;;;;;;;;19.00;18.00;;;;;;;;114848;1200;25544;-68
2022/11/12 18:57:07;;;;;;;;;26.00;22.00;;;;;;;;114777;1206;24897;-69
2022/11/12 18:59:35;;;;;;;;;20.00;18.00;;;;;;;;114802;1206;24802;-66
2022/11/12 19:02:04;;;;;;;;;20.00;16.00;;;;;;;;114774;1205;25392;-66
2022/11/12 19:04:33;;;;;;;;;23.00;17.00;;;;;;;;114824;1199;24856;-66
2022/11/12 19:07:01;;;;;;;;;33.00;24.50;;;;;;;;114880;1204;25235;-67
2022/11/12 19:09:30;;;;;;;;;25.00;22.00;;;;;;;;114904;1200;25294;-67
2022/11/12 19:11:58;;;;;;;;;28.50;25.00;;;;;;;;114766;1204;25883;-68
2022/11/12 19:14:26;;;;;;;;;30.50;22.50;;;;;;;;114862;1200;25367;-68
2022/11/12 19:16:55;;;;;;;;;;;;;;;;;;114897;1197;25261;-66
2022/11/12 19:19:24;;;;;;;;;34.50;30.50;;;;;;;;114883;1209;25644;-67
2022/11/12 19:21:52;;;;;;;;;36.00;23.50;;;;;;;;114893;1203;25526;-67
2022/11/12 19:24:20;;;;;;;;;45.50;34.00;;;;;;;;114853;1200;25279;-75
2022/11/12 19:26:50;;;;;;;;;32.00;29.50;;;;;;;;114971;1208;24799;-68
2022/11/12 19:29:19;;;;;;;;;46.00;33.00;;;;;;;;114854;1203;24929;-70
2022/11/12 19:31:47;;;;;;;;;46.00;35.00;;;;;;;;114790;1206;25174;-70
2022/11/12 19:34:16;;;;;;;;;40.00;32.00;;;;;;;;114786;1207;25574;-71
2022/11/12 19:36:44;;;;;;;;;50.00;37.00;;;;;;;;114863;1200;25594;-71
2022/11/12 19:39:12;;;;;;;;;49.00;36.00;;;;;;;;114832;1199;25645;-72
2022/11/12 19:41:41;;;;;;;;;45.00;36.00;;;;;;;;114855;1203;25656;-71
2022/11/12 19:44:09;;;;;;;;;45.50;35.00;;;;;;;;114856;1199;24977;-71
2022/11/12 19:46:37;;;;;;;;;46.00;36.00;;;;;;;;114826;1204;26331;-70
2022/11/12 19:49:06;;;;;;;;;43.00;32.00;;;;;;;;114862;1206;25209;-70
2022/11/12 19:51:34;;;;;;;;;45.00;34.00;;;;;;;;114844;1199;24703;-71
2022/11/12 19:54:03;;;;;;;;;47.00;34.00;;;;;;;;114890;1200;25483;-70
2022/11/12 19:56:32;;;;;;;;;37.50;33.50;;;;;;;;114796;1201;25428;-72
2022/11/12 19:59:01;;;;;;;;;39.00;34.00;;;;;;;;114748;1203;25331;-71
2022/11/12 20:01:29;;;;;;;;;;;;;;;;;;114867;1208;25223;-67
2022/11/12 20:03:57;;;;;;;;;46.50;34.00;;;;;;;;114864;1207;24890;-72
2022/11/12 20:06:28;;;;;;;;;43.00;35.00;;;;;;;;114872;1204;25533;-74
2022/11/12 20:08:59;;;;;;;;;40.67;32.00;;;;;;;;114902;1206;25135;-69
2022/11/12 20:11:27;;;;;;;;;39.50;29.50;;;;;;;;114875;1206;24834;-70
2022/11/12 20:13:56;;;;;;;;;51.00;39.00;;;;;;;;114777;1208;25131;-72
2022/11/12 20:16:24;;;;;;;;;55.00;40.00;;;;;;;;114795;1205;25254;-69
2022/11/12 20:18:58;;;;;;;;;44.33;34.00;;;;;;;;114901;1208;24930;-68
2022/11/12 20:21:26;;;;;;;;;56.00;38.00;;;;;;;;114884;1206;24889;-73
2022/11/12 20:23:55;;;;;;;;;35.00;31.50;;;;;;;;114862;1197;24669;-68
2022/11/12 20:26:25;;;;;;;;;47.00;35.00;;;;;;;;114812;1200;25247;-72
2022/11/12 20:28:53;;;;;;;;;49.00;37.00;;;;;;;;114854;1206;25063;-71
2022/11/12 20:31:22;;;;;;;;;51.00;34.50;;;;;;;;114787;1201;24996;-70
2022/11/12 20:33:50;;;;;;;;;35.00;31.00;;;;;;;;114881;1208;25589;-69
2022/11/12 20:36:20;;;;;;;;;48.00;36.00;;;;;;;;114732;1203;24871;-68
2022/11/12 20:38:51;;;;;;;;;40.00;34.00;;;;;;;;114758;1206;25453;-66
2022/11/12 20:41:22;;;;;;;;;26.00;24.50;;;;;;;;114737;1205;24873;-68
2022/11/12 20:43:55;;;;;;;;;45.00;33.00;;;;;;;;114689;1199;25069;-68
2022/11/12 20:46:25;;;;;;;;;44.00;33.00;;;;;;;;114834;1204;25653;-67
2022/11/12 20:48:54;;;;;;;;;43.50;33.00;;;;;;;;114836;1211;24887;-67
2022/11/12 20:51:24;;;;;;;;;37.00;29.50;;;;;;;;114843;1206;25536;-67
2022/11/12 20:53:53;;;;;;;;;37.00;31.00;;;;;;;;114792;1202;25456;-68
2022/11/12 20:56:28;;;;;;;;;38.00;31.00;;;;;;;;114827;1200;25325;-68
2022/11/12 20:58:59;;;;;;;;;36.33;31.67;;;;;;;;114864;1208;24667;-68
2022/11/12 21:01:29;;;;;;;;;35.00;28.00;;;;;;;;114848;1203;25402;-69
2022/11/12 21:03:57;;;;;;;;;37.00;32.00;;;;;;;;114906;1205;25087;-68
2022/11/12 21:06:27;;;;;;;;;34.00;30.00;;;;;;;;114937;1200;24820;-67
2022/11/12 21:08:58;;;;;;;;;41.00;33.00;;;;;;;;114884;1200;25665;-67
2022/11/12 21:11:26;;;;;;;;;38.00;30.00;;;;;;;;114877;1206;25148;-67
2022/11/12 21:13:55;;;;;;;;;43.33;32.33;;;;;;;;114838;1203;25398;-68
2022/11/12 21:16:23;;;;;;;;;38.50;30.00;;;;;;;;114854;1206;26101;-68
2022/11/12 21:18:52;;;;;;;;;35.00;30.00;;;;;;;;114905;1200;24759;-68
2022/11/12 21:21:20;;;;;;;;;33.00;28.50;;;;;;;;114876;1208;25606;-68
2022/11/12 21:23:49;;;;;;;;;30.00;26.00;;;;;;;;114871;1203;24997;-67
2022/11/12 21:26:19;;;;;;;;;41.50;30.50;;;;;;;;114875;1199;25414;-68
2022/11/12 21:28:53;;;;;;;;;31.00;28.00;;;;;;;;114855;1202;25598;-68
2022/11/12 21:31:25;;;;;;;;;39.50;30.50;;;;;;;;114815;1201;25327;-67
2022/11/12 21:33:55;;;;;;;;;29.00;28.00;;;;;;;;114893;1204;24881;-68
2022/11/12 21:36:26;;;;;;;;;38.00;30.00;;;;;;;;114726;1211;26373;-67
2022/11/12 21:38:55;;;;;;;;;33.50;23.00;;;;;;;;114721;1203;25120;-68
2022/11/12 21:41:26;;;;;;;;;32.00;28.00;;;;;;;;114869;1208;25109;-68
2022/11/12 21:43:54;;;;;;;;;30.00;24.00;;;;;;;;114788;1205;26040;-67
2022/11/12 21:46:25;;;;;;;;;30.67;23.33;;;;;;;;114856;1200;25707;-68
2022/11/12 21:48:54;;;;;;;;;31.50;26.00;;;;;;;;114876;1199;24966;-67
2022/11/12 21:51:25;;;;;;;;;32.00;27.67;;;;;;;;114818;1196;25127;-65
2022/11/12 21:53:58;;;;;;;;;30.67;27.00;;;;;;;;114903;1200;25568;-66
2022/11/12 21:56:27;;;;;;;;;41.00;31.00;;;;;;;;114861;1202;25633;-69
2022/11/12 21:58:59;;;;;;;;;30.00;24.00;;;;;;;;114869;1203;25499;-66
2022/11/12 22:01:30;;;;;;;;;31.00;27.00;;;;;;;;114841;1206;25415;-65
2022/11/12 22:03:58;;;;;;;;;46.00;31.00;;;;;;;;114883;1205;24913;-65
2022/11/12 22:06:28;;;;;;;;;37.00;31.50;;;;;;;;114660;1201;25909;-66
2022/11/12 22:08:57;;;;;;;;;34.50;29.50;;;;;;;;114770;1209;25645;-74
2022/11/12 22:11:26;;;;;;;;;40.50;31.00;;;;;;;;114778;1203;25401;-74
2022/11/12 22:13:54;;;;;;;;;23.00;23.00;;;;;;;;114668;1202;25367;-71
2022/11/12 22:16:25;;;;;;;;;31.00;25.50;;;;;;;;114778;1206;25517;-69
2022/11/12 22:18:55;;;;;;;;;39.00;31.00;;;;;;;;114817;1199;25682;-70
2022/11/12 22:21:29;;;;;;;;;29.00;24.00;;;;;;;;114854;1200;24679;-70
2022/11/12 22:24:06;;;;;;;;;28.00;26.00;;;;;;;;114710;1206;25638;-71
2022/11/12 22:26:35;;;;;;;;;30.00;25.50;;;;;;;;114839;1201;25233;-72
2022/11/12 22:29:03;;;;;;;;;33.00;27.00;;;;;;;;114713;1200;25519;-70
2022/11/12 22:31:32;;;;;;;;;32.50;26.50;;;;;;;;114791;1200;25943;-69
2022/11/12 22:34:01;;;;;;;;;28.00;24.00;;;;;;;;114853;1200;25038;-70
2022/11/12 22:36:31;;;;;;;;;32.00;28.50;;;;;;;;114774;1206;25500;-70
2022/11/12 22:38:59;;;;;;;;;35.00;31.00;;;;;;;;114802;1199;25754;-69
2022/11/12 22:41:30;;;;;;;;;41.00;33.00;;;;;;;;114814;1199;25596;-71
2022/11/12 22:44:00;;;;;;;;;31.50;25.50;;;;;;;;114804;1203;25128;-71
2022/11/12 22:46:34;;;;;;;;;39.50;29.00;;;;;;;;114838;1200;25138;-70
2022/11/12 22:49:03;;;;;;;;;33.50;26.00;;;;;;;;114883;1200;25418;-69
2022/11/12 22:51:33;;;;;;;;;33.00;29.00;;;;;;;;114852;1203;25164;-68
2022/11/12 22:54:06;;;;;;;;;37.00;28.00;;;;;;;;114897;1200;25988;-68
2022/11/12 22:56:35;;;;;;;;;31.00;28.50;;;;;;;;114840;1200;24782;-69
2022/11/12 22:59:04;;;;;;;;;28.50;26.50;;;;;;;;114864;1204;24965;-69
2022/11/12 23:01:34;;;;;;;;;27.50;27.50;;;;;;;;114866;1196;24932;-69
2022/11/12 23:04:05;;;;;;;;;36.00;31.00;;;;;;;;114839;1200;25100;-69
2022/11/12 23:06:33;;;;;;;;;30.00;28.00;;;;;;;;114806;1203;25071;-69
2022/11/12 23:09:02;;;;;;;;;30.50;26.50;;;;;;;;114797;1206;24963;-69
2022/11/12 23:11:31;;;;;;;;;36.50;30.00;;;;;;;;114816;1206;25096;-68
2022/11/12 23:13:59;;;;;;;;;37.50;31.00;;;;;;;;114829;1197;25459;-69
2022/11/12 23:16:29;;;;;;;;;32.50;28.00;;;;;;;;114856;1206;25193;-69
2022/11/12 23:18:58;;;;;;;;;32.33;28.67;;;;;;;;114869;1199;25154;-69
2022/11/12 23:21:28;;;;;;;;;32.00;28.00;;;;;;;;114904;1199;25277;-69
2022/11/12 23:23:57;;;;;;;;;31.00;23.00;;;;;;;;114915;1200;24808;-68
2022/11/12 23:26:29;;;;;;;;;30.00;28.00;;;;;;;;114900;1208;25551;-68
2022/11/12 23:28:58;;;;;;;;;;;;;;;;;;114833;1206;25033;-68
2022/11/12 23:31:29;;;;;;;;;34.50;30.00;;;;;;;;114822;1202;24874;-69
2022/11/12 23:33:59;;;;;;;;;31.00;27.00;;;;;;;;114846;1196;25741;-69
2022/11/12 23:36:27;;;;;;;;;28.00;25.00;;;;;;;;114889;1199;25398;-69
2022/11/12 23:38:57;;;;;;;;;28.00;27.00;;;;;;;;114915;1200;24700;-72
2022/11/12 23:41:26;;;;;;;;;32.50;26.50;;;;;;;;114844;1199;25258;-69
2022/11/12 23:43:56;;;;;;;;;29.00;23.67;;;;;;;;114901;1196;24964;-69
2022/11/12 23:46:24;;;;;;;;;36.00;30.00;;;;;;;;114859;1206;24984;-68
2022/11/12 23:48:52;;;;;;;;;28.50;22.00;;;;;;;;114898;1206;25615;-69
2022/11/12 23:51:21;;;;;;;;;32.50;24.50;;;;;;;;114766;1208;25769;-69
2022/11/12 23:53:50;;;;;;;;;27.00;24.00;;;;;;;;114867;1205;25405;-68
2022/11/12 23:56:18;;;;;;;;;29.00;25.00;;;;;;;;114893;1207;24985;-69
2022/11/12 23:58:47;;;;;;;;;23.33;22.00;;;;;;;;114915;1202;24898;-69
